sensor_id;sensor_type;location;lat;lon;timestamp;pressure;altitude;pressure_sealevel;temperature;humidity
17936;BME280;9093;52.062;4.508;2023-03-14T00:00:46;99119.44;;;11.68;66.04
17936;BME280;9093;52.062;4.508;2023-03-14T00:03:28;99120.13;;;11.70;66.21
17936;BME280;9093;52.062;4.508;2023-03-14T00:06:09;99122.81;;;11.70;66.10
17936;BME280;9093;52.062;4.508;2023-03-14T00:08:50;99108.47;;;11.71;66.45
17936;BME280;9093;52.062;4.508;2023-03-14T00:11:31;99087.25;;;11.69;66.11
17936;BME280;9093;52.062;4.508;2023-03-14T00:14:12;99096.09;;;11.70;66.25
17936;BME280;9093;52.062;4.508;2023-03-14T00:16:52;99114.94;;;11.68;66.35
17936;BME280;9093;52.062;4.508;2023-03-14T00:19:32;99114.09;;;11.68;66.43
17936;BME280;9093;52.062;4.508;2023-03-14T00:22:13;99112.41;;;11.67;66.31
17936;BME280;9093;52.062;4.508;2023-03-14T00:24:53;99121.38;;;11.66;66.51
17936;BME280;9093;52.062;4.508;2023-03-14T00:27:33;99123.34;;;11.64;66.68
17936;BME280;9093;52.062;4.508;2023-03-14T00:30:15;99124.34;;;11.63;66.69
17936;BME280;9093;52.062;4.508;2023-03-14T00:32:55;99119.97;;;11.62;66.78
17936;BME280;9093;52.062;4.508;2023-03-14T00:35:36;99109.53;;;11.59;66.74
17936;BME280;9093;52.062;4.508;2023-03-14T00:38:16;99114.88;;;11.59;66.91
17936;BME280;9093;52.062;4.508;2023-03-14T00:40:56;99123.16;;;11.56;66.83
17936;BME280;9093;52.062;4.508;2023-03-14T00:43:37;99124.38;;;11.52;67.03
17936;BME280;9093;52.062;4.508;2023-03-14T00:46:18;99112.28;;;11.48;67.26
17936;BME280;9093;52.062;4.508;2023-03-14T00:48:58;99118.72;;;11.45;67.36
17936;BME280;9093;52.062;4.508;2023-03-14T00:51:38;99125.19;;;11.43;67.49
17936;BME280;9093;52.062;4.508;2023-03-14T00:54:19;99120.09;;;11.40;67.65
17936;BME280;9093;52.062;4.508;2023-03-14T00:56:59;99133.56;;;11.38;67.90
17936;BME280;9093;52.062;4.508;2023-03-14T00:59:40;99130.88;;;11.38;67.81
17936;BME280;9093;52.062;4.508;2023-03-14T01:02:20;99129.34;;;11.36;68.12
17936;BME280;9093;52.062;4.508;2023-03-14T01:05:00;99132.13;;;11.34;68.07
17936;BME280;9093;52.062;4.508;2023-03-14T01:07:41;99136.63;;;11.34;68.29
17936;BME280;9093;52.062;4.508;2023-03-14T01:10:21;99126.91;;;11.33;68.45
17936;BME280;9093;52.062;4.508;2023-03-14T01:13:02;99128.88;;;11.31;68.46
17936;BME280;9093;52.062;4.508;2023-03-14T01:15:42;99107.50;;;11.31;68.14
17936;BME280;9093;52.062;4.508;2023-03-14T01:18:22;99096.94;;;11.29;68.43
17936;BME280;9093;52.062;4.508;2023-03-14T01:21:11;99100.72;;;11.26;68.55
17936;BME280;9093;52.062;4.508;2023-03-14T01:23:54;99091.84;;;11.26;68.64
17936;BME280;9093;52.062;4.508;2023-03-14T01:26:35;99098.03;;;11.26;68.50
17936;BME280;9093;52.062;4.508;2023-03-14T01:29:15;99098.31;;;11.23;68.66
17936;BME280;9093;52.062;4.508;2023-03-14T01:31:55;99113.63;;;11.21;68.64
17936;BME280;9093;52.062;4.508;2023-03-14T01:34:36;99126.97;;;11.21;68.84
17936;BME280;9093;52.062;4.508;2023-03-14T01:37:16;99127.09;;;11.20;68.86
17936;BME280;9093;52.062;4.508;2023-03-14T01:39:56;99109.50;;;11.17;68.67
17936;BME280;9093;52.062;4.508;2023-03-14T01:42:37;99120.91;;;11.19;68.93
17936;BME280;9093;52.062;4.508;2023-03-14T01:51:30;99109.50;;;11.17;69.11
17936;BME280;9093;52.062;4.508;2023-03-14T01:54:17;99114.00;;;11.17;69.19
17936;BME280;9093;52.062;4.508;2023-03-14T02:00:04;99092.66;;;11.17;69.18
17936;BME280;9093;52.062;4.508;2023-03-14T02:03:00;99092.53;;;11.18;69.26
17936;BME280;9093;52.062;4.508;2023-03-14T02:05:42;99084.50;;;11.18;69.27
17936;BME280;9093;52.062;4.508;2023-03-14T02:08:23;99083.50;;;11.19;69.15
17936;BME280;9093;52.062;4.508;2023-03-14T02:11:05;99078.88;;;11.21;69.37
17936;BME280;9093;52.062;4.508;2023-03-14T02:13:48;99077.19;;;11.20;69.19
17936;BME280;9093;52.062;4.508;2023-03-14T02:16:29;99071.84;;;11.20;69.33
17936;BME280;9093;52.062;4.508;2023-03-14T02:19:11;99071.00;;;11.20;69.51
17936;BME280;9093;52.062;4.508;2023-03-14T02:22:05;99057.78;;;11.18;69.32
17936;BME280;9093;52.062;4.508;2023-03-14T02:27:40;99084.50;;;11.18;69.61
17936;BME280;9093;52.062;4.508;2023-03-14T02:30:22;99068.47;;;11.18;69.47
17936;BME280;9093;52.062;4.508;2023-03-14T02:33:06;99075.50;;;11.19;69.52
17936;BME280;9093;52.062;4.508;2023-03-14T02:35:59;99083.78;;;11.16;69.72
17936;BME280;9093;52.062;4.508;2023-03-14T02:38:58;99070.53;;;11.15;69.53
17936;BME280;9093;52.062;4.508;2023-03-14T02:41:41;99071.53;;;11.14;69.61
17936;BME280;9093;52.062;4.508;2023-03-14T02:44:22;99072.38;;;11.14;69.41
17936;BME280;9093;52.062;4.508;2023-03-14T02:47:04;99062.66;;;11.13;69.62
17936;BME280;9093;52.062;4.508;2023-03-14T02:49:44;99064.63;;;11.11;69.70
17936;BME280;9093;52.062;4.508;2023-03-14T02:52:24;99065.59;;;11.10;69.54
17936;BME280;9093;52.062;4.508;2023-03-14T02:55:05;99051.78;;;11.05;69.63
17936;BME280;9093;52.062;4.508;2023-03-14T02:57:46;99057.13;;;11.05;69.71
17936;BME280;9093;52.062;4.508;2023-03-14T03:00:26;99060.78;;;11.04;70.02
17936;BME280;9093;52.062;4.508;2023-03-14T03:03:07;99057.38;;;11.02;69.90
17936;BME280;9093;52.062;4.508;2023-03-14T03:05:49;99047.53;;;11.03;69.88
17936;BME280;9093;52.062;4.508;2023-03-14T03:08:31;99060.78;;;11.04;69.79
17936;BME280;9093;52.062;4.508;2023-03-14T03:11:11;99045.84;;;11.02;69.82
17936;BME280;9093;52.062;4.508;2023-03-14T03:13:51;99048.41;;;11.03;69.92
17936;BME280;9093;52.062;4.508;2023-03-14T03:16:32;99050.09;;;11.04;69.83
17936;BME280;9093;52.062;4.508;2023-03-14T03:19:12;99045.59;;;11.05;69.92
17936;BME280;9093;52.062;4.508;2023-03-14T03:21:53;99048.16;;;11.06;69.84
17936;BME280;9093;52.062;4.508;2023-03-14T03:24:34;99041.81;;;11.07;70.04
17936;BME280;9093;52.062;4.508;2023-03-14T03:27:14;99043.50;;;11.08;69.99
17936;BME280;9093;52.062;4.508;2023-03-14T03:29:54;99036.34;;;11.09;69.98
17936;BME280;9093;52.062;4.508;2023-03-14T03:32:35;99043.38;;;11.10;69.90
17936;BME280;9093;52.062;4.508;2023-03-14T03:35:15;99037.06;;;11.11;69.86
17936;BME280;9093;52.062;4.508;2023-03-14T03:37:56;99038.03;;;11.10;70.13
17936;BME280;9093;52.062;4.508;2023-03-14T03:40:36;99041.28;;;11.13;69.97
17936;BME280;9093;52.062;4.508;2023-03-14T03:43:16;99030.75;;;11.12;70.09
17936;BME280;9093;52.062;4.508;2023-03-14T03:45:58;99027.09;;;11.13;70.10
17936;BME280;9093;52.062;4.508;2023-03-14T03:48:38;99023.59;;;11.12;70.19
17936;BME280;9093;52.062;4.508;2023-03-14T03:51:19;99026.28;;;11.12;70.21
17936;BME280;9093;52.062;4.508;2023-03-14T03:53:59;99030.59;;;11.13;70.13
17936;BME280;9093;52.062;4.508;2023-03-14T03:56:39;99028.94;;;11.12;70.13
17936;BME280;9093;52.062;4.508;2023-03-14T03:59:20;99033.56;;;11.10;70.20
17936;BME280;9093;52.062;4.508;2023-03-14T04:02:01;99035.50;;;11.08;70.21
17936;BME280;9093;52.062;4.508;2023-03-14T04:04:41;99040.84;;;11.08;70.33
17936;BME280;9093;52.062;4.508;2023-03-14T04:07:21;99040.38;;;11.03;70.31
17936;BME280;9093;52.062;4.508;2023-03-14T04:10:02;99045.50;;;10.95;70.49
17936;BME280;9093;52.062;4.508;2023-03-14T04:12:42;99051.38;;;10.89;70.55
17936;BME280;9093;52.062;4.508;2023-03-14T04:15:22;99043.16;;;10.81;70.53
17936;BME280;9093;52.062;4.508;2023-03-14T04:18:03;99045.34;;;10.76;70.46
17936;BME280;9093;52.062;4.508;2023-03-14T04:20:43;99041.03;;;10.64;70.85
17936;BME280;9093;52.062;4.508;2023-03-14T04:23:24;99040.09;;;10.54;71.08
17936;BME280;9093;52.062;4.508;2023-03-14T04:26:05;99044.25;;;10.46;71.32
17936;BME280;9093;52.062;4.508;2023-03-14T04:28:45;99043.16;;;10.38;71.24
17936;BME280;9093;52.062;4.508;2023-03-14T04:31:25;99036.63;;;10.31;71.77
17936;BME280;9093;52.062;4.508;2023-03-14T04:34:06;99048.63;;;10.25;71.91
17936;BME280;9093;52.062;4.508;2023-03-14T04:36:46;99045.38;;;10.22;72.02
17936;BME280;9093;52.062;4.508;2023-03-14T04:39:26;99043.09;;;10.17;72.24
17936;BME280;9093;52.062;4.508;2023-03-14T04:42:07;99045.84;;;10.16;72.31
17936;BME280;9093;52.062;4.508;2023-03-14T04:44:47;99039.91;;;10.12;72.38
17936;BME280;9093;52.062;4.508;2023-03-14T04:47:29;99034.09;;;10.07;72.69
17936;BME280;9093;52.062;4.508;2023-03-14T04:50:10;99028.88;;;10.05;72.54
17936;BME280;9093;52.062;4.508;2023-03-14T04:52:51;99019.56;;;10.00;72.65
17936;BME280;9093;52.062;4.508;2023-03-14T04:55:31;99021.75;;;9.95;72.88
17936;BME280;9093;52.062;4.508;2023-03-14T04:58:12;99023.69;;;9.93;73.23
17936;BME280;9093;52.062;4.508;2023-03-14T05:00:52;99018.59;;;9.90;73.33
17936;BME280;9093;52.062;4.508;2023-03-14T05:03:33;99013.50;;;9.87;73.45
17936;BME280;9093;52.062;4.508;2023-03-14T05:06:13;99024.44;;;9.84;73.67
17936;BME280;9093;52.062;4.508;2023-03-14T05:08:53;99013.78;;;9.84;73.68
17936;BME280;9093;52.062;4.508;2023-03-14T05:11:34;99013.78;;;9.84;74.00
17936;BME280;9093;52.062;4.508;2023-03-14T05:14:14;99024.44;;;9.84;73.86
17936;BME280;9093;52.062;4.508;2023-03-14T05:16:54;99026.13;;;9.85;74.23
17936;BME280;9093;52.062;4.508;2023-03-14T05:19:35;99031.69;;;9.82;74.42
17936;BME280;9093;52.062;4.508;2023-03-14T05:22:16;99033.38;;;9.83;74.47
17936;BME280;9093;52.062;4.508;2023-03-14T05:24:56;99034.47;;;9.80;74.52
17936;BME280;9093;52.062;4.508;2023-03-14T05:27:39;99072.88;;;9.78;74.82
17936;BME280;9093;52.062;4.508;2023-03-14T05:30:19;99090.22;;;9.72;74.93
17936;BME280;9093;52.062;4.508;2023-03-14T05:32:59;99084.88;;;9.61;75.40
17936;BME280;9093;52.062;4.508;2023-03-14T05:35:39;99110.25;;;9.43;75.78
17936;BME280;9093;52.062;4.508;2023-03-14T05:38:20;99119.88;;;9.21;76.17
17936;BME280;9093;52.062;4.508;2023-03-14T05:41:02;99129.00;;;9.06;76.68
17936;BME280;9093;52.062;4.508;2023-03-14T05:43:42;99140.81;;;8.91;77.12
17936;BME280;9093;52.062;4.508;2023-03-14T05:46:22;99148.69;;;8.80;77.07
17936;BME280;9093;52.062;4.508;2023-03-14T05:49:03;99138.50;;;8.74;77.14
17936;BME280;9093;52.062;4.508;2023-03-14T05:51:43;99150.69;;;8.65;77.42
17936;BME280;9093;52.062;4.508;2023-03-14T05:54:23;99158.13;;;8.60;77.81
17936;BME280;9093;52.062;4.508;2023-03-14T05:57:04;99166.56;;;8.54;77.71
17936;BME280;9093;52.062;4.508;2023-03-14T05:59:44;99172.31;;;8.48;77.93
17936;BME280;9093;52.062;4.508;2023-03-14T06:02:24;99175.09;;;8.46;77.87
17936;BME280;9093;52.062;4.508;2023-03-14T06:05:05;99178.81;;;8.44;78.00
17936;BME280;9093;52.062;4.508;2023-03-14T06:07:46;99188.72;;;8.42;78.26
17936;BME280;9093;52.062;4.508;2023-03-14T06:10:26;99193.31;;;8.40;78.24
17936;BME280;9093;52.062;4.508;2023-03-14T06:13:06;99203.94;;;8.40;78.47
17936;BME280;9093;52.062;4.508;2023-03-14T06:15:46;99200.31;;;8.41;78.47
17936;BME280;9093;52.062;4.508;2023-03-14T06:18:27;99203.09;;;8.39;78.32
17936;BME280;9093;52.062;4.508;2023-03-14T06:21:08;99214.59;;;8.40;78.38
17936;BME280;9093;52.062;4.508;2023-03-14T06:23:48;99223.72;;;8.36;78.68
17936;BME280;9093;52.062;4.508;2023-03-14T06:26:28;99226.59;;;8.33;78.70
17936;BME280;9093;52.062;4.508;2023-03-14T06:29:09;99234.03;;;8.28;78.77
17936;BME280;9093;52.062;4.508;2023-03-14T06:31:49;99247.50;;;8.25;78.95
17936;BME280;9093;52.062;4.508;2023-03-14T06:34:30;99251.56;;;8.18;79.15
17936;BME280;9093;52.062;4.508;2023-03-14T06:37:10;99262.50;;;8.13;79.10
17936;BME280;9093;52.062;4.508;2023-03-14T06:39:50;99274.94;;;8.13;79.03
17936;BME280;9093;52.062;4.508;2023-03-14T06:42:31;99275.13;;;8.09;79.17
17936;BME280;9093;52.062;4.508;2023-03-14T06:45:11;99289.41;;;8.08;79.24
17936;BME280;9093;52.062;4.508;2023-03-14T06:47:52;99295.69;;;8.07;79.18
17936;BME280;9093;52.062;4.508;2023-03-14T06:50:32;99304.59;;;8.06;79.31
17936;BME280;9093;52.062;4.508;2023-03-14T06:53:12;99307.25;;;8.06;79.47
17936;BME280;9093;52.062;4.508;2023-03-14T06:55:53;99313.22;;;8.10;79.34
17936;BME280;9093;52.062;4.508;2023-03-14T06:58:33;99333.84;;;8.06;79.58
17936;BME280;9093;52.062;4.508;2023-03-14T07:01:23;99341.81;;;8.06;79.68
17936;BME280;9093;52.062;4.508;2023-03-14T07:04:04;99357.53;;;8.09;79.59
17936;BME280;9093;52.062;4.508;2023-03-14T07:06:45;99370.09;;;8.07;79.41
17936;BME280;9093;52.062;4.508;2023-03-14T07:09:26;99370.81;;;8.09;79.70
17936;BME280;9093;52.062;4.508;2023-03-14T07:12:06;99377.84;;;8.11;79.56
17936;BME280;9093;52.062;4.508;2023-03-14T07:14:47;99374.25;;;8.12;79.71
17936;BME280;9093;52.062;4.508;2023-03-14T07:17:27;99388.47;;;8.11;79.60
17936;BME280;9093;52.062;4.508;2023-03-14T07:20:08;99398.94;;;8.14;79.75
17936;BME280;9093;52.062;4.508;2023-03-14T07:22:49;99412.75;;;8.19;79.54
17936;BME280;9093;52.062;4.508;2023-03-14T07:25:29;99427.66;;;8.21;79.85
17936;BME280;9093;52.062;4.508;2023-03-14T07:28:10;99439.97;;;8.22;79.45
17936;BME280;9093;52.062;4.508;2023-03-14T07:30:50;99448.19;;;8.19;79.57
17936;BME280;9093;52.062;4.508;2023-03-14T07:33:31;99459.75;;;8.18;79.82
17936;BME280;9093;52.062;4.508;2023-03-14T07:36:11;99476.97;;;8.13;79.90
17936;BME280;9093;52.062;4.508;2023-03-14T07:38:52;99487.16;;;8.06;79.85
17936;BME280;9093;52.062;4.508;2023-03-14T07:41:32;99499.97;;;7.99;80.19
17936;BME280;9093;52.062;4.508;2023-03-14T07:44:13;99517.47;;;7.89;80.34
17936;BME280;9093;52.062;4.508;2023-03-14T07:46:53;99538.34;;;7.81;80.42
17936;BME280;9093;52.062;4.508;2023-03-14T07:49:34;99551.81;;;7.78;80.30
17936;BME280;9093;52.062;4.508;2023-03-14T07:52:14;99560.38;;;7.69;80.51
17936;BME280;9093;52.062;4.508;2023-03-14T07:54:54;99576.69;;;7.63;80.62
17936;BME280;9093;52.062;4.508;2023-03-14T07:57:35;99592.25;;;7.55;80.49
17936;BME280;9093;52.062;4.508;2023-03-14T08:00:15;99610.25;;;7.50;80.81
17936;BME280;9093;52.062;4.508;2023-03-14T08:02:55;99617.66;;;7.45;80.86
17936;BME280;9093;52.062;4.508;2023-03-14T08:05:37;99628.66;;;7.39;80.79
17936;BME280;9093;52.062;4.508;2023-03-14T08:08:18;99627.09;;;7.35;81.24
17936;BME280;9093;52.062;4.508;2023-03-14T08:11:05;99642.00;;;7.37;80.97
17936;BME280;9093;52.062;4.508;2023-03-14T08:13:48;99649.69;;;7.42;81.40
17936;BME280;9093;52.062;4.508;2023-03-14T08:16:30;99669.81;;;7.46;81.27
17936;BME280;9093;52.062;4.508;2023-03-14T08:19:11;99681.09;;;7.49;81.18
17936;BME280;9093;52.062;4.508;2023-03-14T08:21:51;99696.53;;;7.43;81.50
17936;BME280;9093;52.062;4.508;2023-03-14T08:24:32;99708.19;;;7.40;81.51
17936;BME280;9093;52.062;4.508;2023-03-14T08:27:12;99718.16;;;7.37;81.45
17936;BME280;9093;52.062;4.508;2023-03-14T08:29:54;99740.88;;;7.26;81.35
17936;BME280;9093;52.062;4.508;2023-03-14T08:32:34;99751.16;;;7.17;81.38
17936;BME280;9093;52.062;4.508;2023-03-14T08:35:15;99760.59;;;7.07;81.48
17936;BME280;9093;52.062;4.508;2023-03-14T08:37:55;99766.47;;;6.96;81.46
17936;BME280;9093;52.062;4.508;2023-03-14T08:40:35;99786.09;;;6.94;81.56
17936;BME280;9093;52.062;4.508;2023-03-14T08:43:16;99794.81;;;6.96;81.33
17936;BME280;9093;52.062;4.508;2023-03-14T08:46:00;99806.72;;;7.04;81.06
17936;BME280;9093;52.062;4.508;2023-03-14T08:48:41;99809.03;;;7.10;81.13
17936;BME280;9093;52.062;4.508;2023-03-14T08:51:21;99830.78;;;7.17;81.10
17936;BME280;9093;52.062;4.508;2023-03-14T08:54:02;99839.19;;;7.25;81.18
17936;BME280;9093;52.062;4.508;2023-03-14T08:56:42;99837.97;;;7.31;81.07
17936;BME280;9093;52.062;4.508;2023-03-14T08:59:23;99860.41;;;7.41;80.95
17936;BME280;9093;52.062;4.508;2023-03-14T09:02:03;99865.56;;;7.44;80.81
17936;BME280;9093;52.062;4.508;2023-03-14T09:04:44;99866.16;;;7.49;80.90
17936;BME280;9093;52.062;4.508;2023-03-14T09:07:24;99879.28;;;7.52;80.90
17936;BME280;9093;52.062;4.508;2023-03-14T09:10:06;99885.91;;;7.59;80.84
17936;BME280;9093;52.062;4.508;2023-03-14T09:12:47;99887.47;;;7.63;80.67
17936;BME280;9093;52.062;4.508;2023-03-14T09:15:27;99903.41;;;7.63;80.81
17936;BME280;9093;52.062;4.508;2023-03-14T09:18:08;99919.16;;;7.66;80.59
17936;BME280;9093;52.062;4.508;2023-03-14T09:20:49;99923.53;;;7.67;80.77
17936;BME280;9093;52.062;4.508;2023-03-14T09:23:29;99936.81;;;7.67;80.66
17936;BME280;9093;52.062;4.508;2023-03-14T09:26:10;99951.81;;;7.68;80.49
17936;BME280;9093;52.062;4.508;2023-03-14T09:28:50;99973.44;;;7.62;80.57
17936;BME280;9093;52.062;4.508;2023-03-14T09:31:30;99998.59;;;7.55;80.75
17936;BME280;9093;52.062;4.508;2023-03-14T09:34:11;100000.91;;;7.45;80.69
17936;BME280;9093;52.062;4.508;2023-03-14T09:36:51;100032.59;;;7.33;80.73
17936;BME280;9093;52.062;4.508;2023-03-14T09:39:31;100034.78;;;7.24;81.01
17936;BME280;9093;52.062;4.508;2023-03-14T09:42:15;100028.00;;;7.19;81.36
17936;BME280;9093;52.062;4.508;2023-03-14T09:44:59;100024.63;;;7.15;81.25
17936;BME280;9093;52.062;4.508;2023-03-14T09:47:40;100035.25;;;7.15;81.24
17936;BME280;9093;52.062;4.508;2023-03-14T09:50:22;100043.75;;;7.22;81.41
17936;BME280;9093;52.062;4.508;2023-03-14T09:53:08;100052.44;;;7.25;81.41
17936;BME280;9093;52.062;4.508;2023-03-14T09:55:51;100069.75;;;7.33;81.51
17936;BME280;9093;52.062;4.508;2023-03-14T09:58:32;100078.16;;;7.41;81.16
17936;BME280;9093;52.062;4.508;2023-03-14T10:01:15;100084.25;;;7.43;81.05
17936;BME280;9093;52.062;4.508;2023-03-14T10:04:01;100101.06;;;7.43;81.22
17936;BME280;9093;52.062;4.508;2023-03-14T10:06:42;100113.66;;;7.40;81.15
17936;BME280;9093;52.062;4.508;2023-03-14T10:09:23;100118.16;;;7.38;80.88
17936;BME280;9093;52.062;4.508;2023-03-14T10:12:08;100124.28;;;7.40;80.85
17936;BME280;9093;52.062;4.508;2023-03-14T10:14:52;100143.47;;;7.45;80.91
17936;BME280;9093;52.062;4.508;2023-03-14T10:17:47;100155.09;;;7.42;80.93
17936;BME280;9093;52.062;4.508;2023-03-14T10:20:29;100171.75;;;7.46;80.80
17936;BME280;9093;52.062;4.508;2023-03-14T10:26:13;100188.63;;;7.45;80.95
17936;BME280;9093;52.062;4.508;2023-03-14T10:29:03;100190.66;;;7.57;80.85
17936;BME280;9093;52.062;4.508;2023-03-14T10:32:05;100203.59;;;7.63;80.90
17936;BME280;9093;52.062;4.508;2023-03-14T10:35:05;100223.59;;;7.70;80.59
17936;BME280;9093;52.062;4.508;2023-03-14T10:38:03;100234.13;;;7.72;80.68
17936;BME280;9093;52.062;4.508;2023-03-14T10:40:49;100228.94;;;7.70;80.46
17936;BME280;9093;52.062;4.508;2023-03-14T10:43:34;100246.59;;;7.71;80.17
17936;BME280;9093;52.062;4.508;2023-03-14T10:46:17;100257.34;;;7.68;80.23
17936;BME280;9093;52.062;4.508;2023-03-14T10:48:59;100269.78;;;7.67;80.41
17936;BME280;9093;52.062;4.508;2023-03-14T10:51:45;100275.97;;;7.68;80.42
17936;BME280;9093;52.062;4.508;2023-03-14T10:54:29;100283.63;;;7.74;80.68
17936;BME280;9093;52.062;4.508;2023-03-14T10:57:11;100309.88;;;7.80;80.59
17936;BME280;9093;52.062;4.508;2023-03-14T10:59:51;100309.81;;;7.82;80.44
17936;BME280;9093;52.062;4.508;2023-03-14T11:05:31;100317.38;;;7.72;80.61
17936;BME280;9093;52.062;4.508;2023-03-14T11:11:22;100346.28;;;7.61;80.72
17936;BME280;9093;52.062;4.508;2023-03-14T11:14:15;100370.66;;;7.52;80.48
17936;BME280;9093;52.062;4.508;2023-03-14T11:23:12;100400.31;;;7.43;79.93
17936;BME280;9093;52.062;4.508;2023-03-14T11:29:18;100408.56;;;7.37;79.45
17936;BME280;9093;52.062;4.508;2023-03-14T11:32:02;100428.31;;;7.31;79.40
17936;BME280;9093;52.062;4.508;2023-03-14T11:34:53;100438.94;;;7.31;79.07
17936;BME280;9093;52.062;4.508;2023-03-14T11:37:36;100429.94;;;7.34;78.88
17936;BME280;9093;52.062;4.508;2023-03-14T11:40:22;100460.59;;;7.41;78.95
17936;BME280;9093;52.062;4.508;2023-03-14T11:45:51;100475.81;;;7.56;78.83
17936;BME280;9093;52.062;4.508;2023-03-14T11:48:38;100471.94;;;7.63;78.48
17936;BME280;9093;52.062;4.508;2023-03-14T11:51:27;100484.94;;;7.69;78.22
17936;BME280;9093;52.062;4.508;2023-03-14T11:57:01;100482.81;;;7.94;77.91
17936;BME280;9093;52.062;4.508;2023-03-14T12:02:41;100507.63;;;8.12;77.62
17936;BME280;9093;52.062;4.508;2023-03-14T12:06:09;100501.31;;;8.15;77.65
17936;BME280;9093;52.062;4.508;2023-03-14T12:08:56;100514.94;;;8.26;77.52
17936;BME280;9093;52.062;4.508;2023-03-14T12:14:37;100527.09;;;8.31;77.17
17936;BME280;9093;52.062;4.508;2023-03-14T12:17:39;100525.31;;;8.32;77.07
17936;BME280;9093;52.062;4.508;2023-03-14T12:20:24;100540.91;;;8.39;76.62
17936;BME280;9093;52.062;4.508;2023-03-14T12:23:10;100539.09;;;8.40;76.41
17936;BME280;9093;52.062;4.508;2023-03-14T12:26:21;100559.53;;;8.39;76.79
17936;BME280;9093;52.062;4.508;2023-03-14T12:31:45;100554.28;;;8.55;76.11
17936;BME280;9093;52.062;4.508;2023-03-14T12:34:28;100564.31;;;8.67;75.57
17936;BME280;9093;52.062;4.508;2023-03-14T12:37:19;100571.22;;;8.71;75.18
17936;BME280;9093;52.062;4.508;2023-03-14T12:40:17;100582.00;;;8.68;74.96
17936;BME280;9093;52.062;4.508;2023-03-14T12:43:01;100576.13;;;8.62;74.75
17936;BME280;9093;52.062;4.508;2023-03-14T12:48:53;100590.53;;;8.58;74.28
17936;BME280;9093;52.062;4.508;2023-03-14T12:51:39;100595.31;;;8.51;73.63
17936;BME280;9093;52.062;4.508;2023-03-14T12:59:59;100628.16;;;8.50;71.39
17936;BME280;9093;52.062;4.508;2023-03-14T13:02:44;100620.03;;;8.53;70.46
17936;BME280;9093;52.062;4.508;2023-03-14T13:05:25;100631.31;;;8.58;70.56
17936;BME280;9093;52.062;4.508;2023-03-14T13:08:09;100648.22;;;8.57;70.31
17936;BME280;9093;52.062;4.508;2023-03-14T13:10:49;100666.03;;;8.55;70.17
17936;BME280;9093;52.062;4.508;2023-03-14T13:13:30;100658.84;;;8.57;69.61
17936;BME280;9093;52.062;4.508;2023-03-14T13:16:16;100685.16;;;8.63;69.26
17936;BME280;9093;52.062;4.508;2023-03-14T13:19:03;100686.59;;;8.70;68.97
17936;BME280;9093;52.062;4.508;2023-03-14T13:21:50;100685.56;;;8.73;69.40
17936;BME280;9093;52.062;4.508;2023-03-14T13:24:33;100694.44;;;8.73;68.86
17936;BME280;9093;52.062;4.508;2023-03-14T13:27:18;100698.75;;;8.76;68.70
17936;BME280;9093;52.062;4.508;2023-03-14T13:30:28;100719.25;;;8.74;68.53
17936;BME280;9093;52.062;4.508;2023-03-14T13:33:18;100735.94;;;8.77;67.99
17936;BME280;9093;52.062;4.508;2023-03-14T13:36:04;100742.03;;;8.79;67.17
17936;BME280;9093;52.062;4.508;2023-03-14T13:38:55;100726.06;;;8.79;66.78
17936;BME280;9093;52.062;4.508;2023-03-14T13:41:37;100739.19;;;8.84;66.73
17936;BME280;9093;52.062;4.508;2023-03-14T13:44:37;100746.31;;;8.83;66.80
17936;BME280;9093;52.062;4.508;2023-03-14T13:47:20;100759.63;;;8.83;66.45
17936;BME280;9093;52.062;4.508;2023-03-14T13:50:01;100760.53;;;8.82;66.56
17936;BME280;9093;52.062;4.508;2023-03-14T13:52:41;100759.81;;;8.79;66.17
17936;BME280;9093;52.062;4.508;2023-03-14T13:55:21;100755.34;;;8.79;66.10
17936;BME280;9093;52.062;4.508;2023-03-14T13:58:02;100764.00;;;8.84;66.05
17936;BME280;9093;52.062;4.508;2023-03-14T14:00:42;100774.66;;;8.84;65.95
17936;BME280;9093;52.062;4.508;2023-03-14T14:03:23;100774.66;;;8.84;65.93
17936;BME280;9093;52.062;4.508;2023-03-14T14:06:05;100780.84;;;8.85;65.88
17936;BME280;9093;52.062;4.508;2023-03-14T14:08:49;100792.31;;;8.85;65.58
17936;BME280;9093;52.062;4.508;2023-03-14T14:11:50;100801.69;;;8.75;65.19
17936;BME280;9093;52.062;4.508;2023-03-14T14:14:39;100813.22;;;8.76;64.96
17936;BME280;9093;52.062;4.508;2023-03-14T14:17:24;100811.19;;;8.81;65.05
17936;BME280;9093;52.062;4.508;2023-03-14T14:20:11;100817.53;;;8.78;64.53
17936;BME280;9093;52.062;4.508;2023-03-14T14:22:52;100835.38;;;8.76;64.34
17936;BME280;9093;52.062;4.508;2023-03-14T14:25:33;100842.84;;;8.68;64.04
17936;BME280;9093;52.062;4.508;2023-03-14T14:28:33;100839.53;;;8.63;63.91
17936;BME280;9093;52.062;4.508;2023-03-14T14:34:02;100852.50;;;8.71;62.71
17936;BME280;9093;52.062;4.508;2023-03-14T14:36:44;100852.28;;;8.75;62.72
17936;BME280;9093;52.062;4.508;2023-03-14T14:39:29;100864.44;;;8.81;62.78
17936;BME280;9093;52.062;4.508;2023-03-14T14:42:19;100866.16;;;8.82;62.45
17936;BME280;9093;52.062;4.508;2023-03-14T14:45:02;100873.94;;;8.86;62.42
17936;BME280;9093;52.062;4.508;2023-03-14T14:47:51;100874.69;;;8.90;62.24
17936;BME280;9093;52.062;4.508;2023-03-14T14:50:34;100887.19;;;8.88;61.66
17936;BME280;9093;52.062;4.508;2023-03-14T14:53:37;100886.59;;;8.81;61.25
17936;BME280;9093;52.062;4.508;2023-03-14T14:56:21;100891.41;;;8.92;60.94
17936;BME280;9093;52.062;4.508;2023-03-14T14:59:17;100901.88;;;8.97;60.66
17936;BME280;9093;52.062;4.508;2023-03-14T15:02:02;100912.66;;;8.94;60.44
17936;BME280;9093;52.062;4.508;2023-03-14T15:04:42;100930.50;;;8.92;60.37
17936;BME280;9093;52.062;4.508;2023-03-14T15:07:23;100923.25;;;8.95;60.54
17936;BME280;9093;52.062;4.508;2023-03-14T15:10:03;100931.94;;;8.99;60.34
17936;BME280;9093;52.062;4.508;2023-03-14T15:12:44;100934.25;;;9.06;60.14
17936;BME280;9093;52.062;4.508;2023-03-14T15:15:24;100946.44;;;9.12;60.18
17936;BME280;9093;52.062;4.508;2023-03-14T15:18:18;100945.38;;;9.16;59.99
17936;BME280;9093;52.062;4.508;2023-03-14T15:20:58;100954.00;;;9.21;59.69
17936;BME280;9093;52.062;4.508;2023-03-14T15:23:40;100942.44;;;9.22;59.69
17936;BME280;9093;52.062;4.508;2023-03-14T15:26:23;100978.06;;;9.19;59.47
17936;BME280;9093;52.062;4.508;2023-03-14T15:29:04;100970.69;;;9.06;59.04
17936;BME280;9093;52.062;4.508;2023-03-14T15:31:48;100980.03;;;8.96;58.72
17936;BME280;9093;52.062;4.508;2023-03-14T15:34:28;100984.50;;;8.95;58.80